Time;durP1;ratioP1;P1;durP2;ratioP2;P2;SDS_P1;SDS_P2;PMS_P1;PMS_P2;Temp;Humidity;BMP_temperature;BMP_pressure;BME280_temperature;BME280_humidity;BME280_pressure;Samples;Min_cycle;Max_cycle;Signal;HPM_P1;HPM_P2
2022/09/24 00:01:37;;;;;;;9.73;6.47;;;;;;;15.79;67.05;100752.66;6252448;22;20427;-71
2022/09/24 00:04:08;;;;;;;11.60;6.70;;;;;;;16.09;66.39;100739.31;6250962;22;20015;-71
2022/09/24 00:06:44;;;;;;;12.98;7.10;;;;;;;16.40;65.13;100743.09;6225250;22;20023;-72
2022/09/24 00:09:12;;;;;;;10.63;6.15;;;;;;;16.57;64.23;100737.25;6251939;22;20024;-71
2022/09/24 00:11:42;;;;;;;12.20;6.63;;;;;;;16.61;63.97;100738.19;6277366;22;20023;-71
2022/09/24 00:14:10;;;;;;;10.57;6.73;;;;;;;16.17;65.73;100736.41;6224822;22;20016;-62
2022/09/24 00:16:38;;;;;;;13.80;6.55;;;;;;;15.96;66.70;100735.75;6250353;22;20023;-62
2022/09/24 00:19:06;;;;;;;11.73;6.80;;;;;;;15.80;67.49;100732.03;6278825;22;20026;-73
2022/09/24 00:21:35;;;;;;;7.85;5.85;;;;;;;16.31;66.09;100727.69;6225523;22;20103;-63
2022/09/24 00:24:08;;;;;;;8.60;5.65;;;;;;;16.71;64.38;100722.94;6250266;22;20070;-63
2022/09/24 00:26:51;;;;;;;11.35;6.32;;;;;;;16.49;65.14;100723.50;6224829;22;20019;-62
2022/09/24 00:29:21;;;;;;;11.32;6.82;;;;;;;16.93;63.56;100724.38;6279248;22;20023;-63
2022/09/24 00:31:51;;;;;;;10.55;5.57;;;;;;;17.09;62.74;100719.63;6279564;22;20018;-62
2022/09/24 00:34:21;;;;;;;9.80;6.40;;;;;;;16.91;62.95;100729.47;6251829;22;20023;-63
2022/09/24 00:36:49;;;;;;;12.38;6.25;;;;;;;16.89;63.32;100721.50;6278646;22;20359;-63
2022/09/24 00:39:16;;;;;;;9.80;5.85;;;;;;;16.64;64.26;100719.97;6280017;22;20016;-72
2022/09/24 00:41:46;;;;;;;11.18;6.53;;;;;;;16.56;64.41;100723.72;6253134;22;20015;-72
2022/09/24 00:44:44;;;;;;;10.23;6.35;;;;;;;16.09;66.37;100719.88;6280475;22;20454;-72
2022/09/24 00:47:33;;;;;;;11.15;6.78;;;;;;;15.77;67.98;100719.69;6279566;22;20024;-64
2022/09/24 00:50:30;;;;;;;9.87;6.10;;;;;;;16.35;66.36;100725.84;6279088;22;20459;-72
2022/09/24 00:53:03;;;;;;;11.13;6.65;;;;;;;16.50;65.59;100722.34;6251738;22;20451;-73
2022/09/24 00:55:32;;;;;;;11.90;7.07;;;;;;;16.60;65.56;100721.81;6278981;22;20451;-73
2022/09/24 00:58:03;;;;;;;11.77;6.40;;;;;;;16.69;64.63;100720.53;6253333;22;20024;-72
2022/09/24 01:00:32;;;;;;;10.88;7.18;;;;;;;16.61;65.43;100713.16;6251662;22;20027;-72
2022/09/24 01:03:02;;;;;;;12.20;6.40;;;;;;;16.68;65.06;100713.31;6251922;22;20027;-72
2022/09/24 01:05:30;;;;;;;11.20;7.20;;;;;;;16.60;65.28;100714.31;6251274;22;20040;-72
2022/09/24 01:07:57;;;;;;;13.32;7.45;;;;;;;16.88;64.60;100717.06;6277337;22;20015;-72
2022/09/24 01:10:59;;;;;;;9.85;6.53;;;;;;;17.39;62.64;100716.06;6250899;22;20020;-71
2022/09/24 01:13:59;;;;;;;10.52;6.68;;;;;;;17.56;61.78;100717.69;6208142;22;20155;-71
2022/09/24 01:16:56;;;;;;;12.82;6.78;;;;;;;17.25;62.75;100714.88;6277879;22;20367;-71
2022/09/24 01:19:47;;;;;;;16.65;7.10;;;;;;;16.92;64.26;100706.03;6224472;22;20020;-69
2022/09/24 01:22:38;;;;;;;10.30;6.43;;;;;;;17.41;62.84;100718.50;6278462;22;20316;-72
2022/09/24 01:25:15;;;;;;;11.55;7.15;;;;;;;17.44;63.21;100717.75;6250823;22;20019;-63
2022/09/24 01:27:55;;;;;;;11.15;7.28;;;;;;;16.94;64.96;100710.09;6278337;22;20023;-63
2022/09/24 01:30:24;;;;;;;13.93;7.47;;;;;;;16.50;67.37;100712.03;6250732;22;20024;-63
2022/09/24 01:32:55;;;;;;;12.93;7.32;;;;;;;16.30;68.84;100707.41;6226926;22;20019;-62
2022/09/24 01:35:28;;;;;;;13.50;7.40;;;;;;;16.43;68.74;100713.75;6226091;22;20022;-64
2022/09/24 01:38:16;;;;;;;12.88;6.97;;;;;;;17.03;66.34;100702.41;6225587;22;20026;-64
2022/09/24 01:40:45;;;;;;;10.98;7.10;;;;;;;17.09;66.51;100705.69;6250100;22;20020;-62
2022/09/24 01:43:15;;;;;;;12.57;7.20;;;;;;;17.02;66.46;100703.53;6278987;22;20596;-63
2022/09/24 01:45:42;;;;;;;11.48;6.80;;;;;;;17.08;66.49;100698.53;6277999;22;20355;-62
2022/09/24 01:48:09;;;;;;;12.77;7.32;;;;;;;16.74;67.59;100695.22;6278146;22;20022;-62
2022/09/24 01:50:45;;;;;;;13.63;6.95;;;;;;;16.66;68.40;100692.63;6277746;22;20019;-63
2022/09/24 01:53:20;;;;;;;11.88;7.05;;;;;;;16.59;68.97;100686.84;6248723;22;20339;-63
2022/09/24 01:55:51;;;;;;;10.88;6.97;;;;;;;16.96;67.49;100687.47;6250988;22;20015;-62
2022/09/24 01:58:36;;;;;;;10.48;7.25;;;;;;;16.89;67.70;100685.31;6278776;22;20019;-62
2022/09/24 02:01:09;;;;;;;10.10;6.75;;;;;;;16.90;67.54;100678.56;6251058;22;20015;-62
2022/09/24 02:03:42;;;;;;;10.80;7.35;;;;;;;16.61;68.95;100677.00;6278507;22;20447;-62
2022/09/24 02:06:13;;;;;;;11.13;7.40;;;;;;;16.73;68.52;100676.13;6251056;22;20344;-63
2022/09/24 02:08:45;;;;;;;9.48;6.72;;;;;;;16.98;67.24;100672.03;6224038;22;20042;-62
2022/09/24 02:11:15;;;;;;;11.65;6.72;;;;;;;17.28;66.17;100677.97;6224633;22;20016;-71
2022/09/24 02:13:48;;;;;;;11.60;7.05;;;;;;;17.37;65.85;100667.47;6277940;22;20012;-72
2022/09/24 02:16:29;;;;;;;11.75;7.13;;;;;;;17.45;65.67;100661.69;6225965;22;20020;-62
2022/09/24 02:18:59;;;;;;;12.73;7.32;;;;;;;17.43;65.83;100666.84;6250759;22;20339;-65
2022/09/24 02:21:28;;;;;;;10.93;7.45;;;;;;;17.49;65.90;100662.63;6277915;22;20019;-72
2022/09/24 02:24:00;;;;;;;10.13;6.55;;;;;;;17.54;65.64;100656.00;6277373;22;20015;-71
2022/09/24 02:26:28;;;;;;;10.52;7.20;;;;;;;17.53;66.07;100655.19;6250178;22;20066;-73
2022/09/24 02:28:57;;;;;;;10.60;7.07;;;;;;;17.52;66.24;100647.97;6250577;22;20024;-71
2022/09/24 02:31:35;;;;;;;9.73;6.70;;;;;;;17.55;65.99;100654.81;6276992;22;20024;-71
2022/09/24 02:34:22;;;;;;;9.52;6.65;;;;;;;17.50;66.29;100649.53;6201397;22;20015;-72
2022/09/24 02:36:52;;;;;;;9.30;6.15;;;;;;;17.52;66.10;100638.84;6262234;22;20023;-63
2022/09/24 02:39:19;;;;;;;10.07;6.95;;;;;;;17.48;66.52;100644.31;6251370;22;20026;-69
2022/09/24 02:41:48;;;;;;;10.63;7.32;;;;;;;17.55;66.36;100643.69;6252776;22;20018;-63
2022/09/24 02:44:16;;;;;;;10.77;6.85;;;;;;;17.59;65.94;100636.22;6279597;22;20331;-71
2022/09/24 02:46:44;;;;;;;10.63;6.90;;;;;;;17.56;65.98;100642.50;6252550;22;20030;-71
2022/09/24 02:49:13;;;;;;;10.98;7.10;;;;;;;17.56;66.07;100640.53;6226238;22;20019;-72
2022/09/24 02:51:41;;;;;;;9.73;6.65;;;;;;;17.53;65.81;100630.13;6252197;22;20030;-63
2022/09/24 02:54:10;;;;;;;12.80;7.20;;;;;;;17.43;66.31;100641.78;6279958;22;20012;-62
2022/09/24 02:56:38;;;;;;;10.25;7.30;;;;;;;17.46;66.24;100634.66;6227362;22;20026;-63
2022/09/24 02:59:06;;;;;;;8.93;6.15;;;;;;;17.44;66.21;100632.25;6252721;22;20111;-63
2022/09/24 03:01:34;;;;;;;9.68;6.80;;;;;;;17.36;66.54;100633.25;6226667;22;20459;-63
2022/09/24 03:04:02;;;;;;;10.25;7.22;;;;;;;17.38;66.87;100635.69;6280091;22;20016;-63
2022/09/24 03:06:29;;;;;;;11.20;6.80;;;;;;;17.42;66.69;100634.59;6278676;22;20020;-72
2022/09/24 03:08:56;;;;;;;10.60;6.93;;;;;;;17.44;66.78;100637.00;6251713;22;20019;-71
2022/09/24 03:11:24;;;;;;;10.38;7.15;;;;;;;17.49;66.42;100634.78;6279269;22;20016;-62
2022/09/24 03:13:51;;;;;;;9.45;6.95;;;;;;;17.53;66.57;100635.69;6252235;22;20031;-62
2022/09/24 03:16:19;;;;;;;12.93;7.22;;;;;;;17.59;66.50;100620.31;6252344;22;20426;-72
2022/09/24 03:18:47;;;;;;;11.05;6.90;;;;;;;17.62;66.28;100627.97;6252037;22;20024;-71
2022/09/24 03:21:16;;;;;;;11.13;7.60;;;;;;;17.44;67.02;100623.91;6251847;22;20030;-62
2022/09/24 03:23:43;;;;;;;10.20;6.53;;;;;;;16.84;68.71;100624.38;6202542;22;20008;-71
2022/09/24 03:26:11;;;;;;;11.43;7.03;;;;;;;16.50;69.63;100620.28;6252100;22;20023;-73
2022/09/24 03:28:39;;;;;;;11.30;6.95;;;;;;;16.74;69.25;100630.44;6279474;22;20201;-70
2022/09/24 03:31:07;;;;;;;9.68;6.75;;;;;;;16.97;68.57;100625.91;6252368;22;20016;-71
2022/09/24 03:33:43;;;;;;;9.75;6.43;;;;;;;17.03;68.36;100627.25;6250917;22;20483;-63
2022/09/24 03:36:16;;;;;;;12.40;7.28;;;;;;;17.15;68.08;100618.00;6250806;22;20589;-70
2022/09/24 03:38:44;;;;;;;11.27;7.05;;;;;;;16.95;68.93;100619.06;6279339;22;20026;-71
2022/09/24 03:41:12;;;;;;;13.05;7.68;;;;;;;17.08;68.72;100617.81;6280768;22;20485;-71
2022/09/24 03:43:40;;;;;;;10.70;6.88;;;;;;;17.24;68.02;100613.88;6254969;22;20016;-72
2022/09/24 03:46:20;;;;;;;10.88;7.10;;;;;;;17.27;67.93;100612.34;6279661;22;20016;-63
2022/09/24 03:49:06;;;;;;;11.02;7.20;;;;;;;17.43;67.28;100604.78;6254855;22;20022;-63
2022/09/24 03:51:33;;;;;;;11.02;7.75;;;;;;;17.26;68.27;100613.50;6225630;22;20019;-72
2022/09/24 03:54:00;;;;;;;12.05;7.10;;;;;;;17.16;68.34;100614.03;6227114;22;20102;-63
2022/09/24 03:56:28;;;;;;;9.35;6.78;;;;;;;17.30;67.96;100604.06;6279176;22;20019;-63
2022/09/24 03:58:58;;;;;;;11.88;7.00;;;;;;;17.32;67.99;100604.50;6279213;22;20027;-64
2022/09/24 04:01:25;;;;;;;11.98;7.65;;;;;;;16.82;69.59;100604.44;6251388;22;20022;-62
2022/09/24 04:03:53;;;;;;;10.57;7.45;;;;;;;16.35;71.36;100606.31;6278312;22;20347;-61
2022/09/24 04:06:25;;;;;;;;;;;;;;;16.56;71.17;100609.69;6227989;22;20022;-63
2022/09/24 04:08:52;;;;;;;11.38;7.63;;;;;;;16.37;70.99;100604.75;6252079;22;19923;-63
2022/09/24 04:11:20;;;;;;;12.02;7.03;;;;;;;16.11;73.11;100601.63;6278841;22;20015;-63
2022/09/24 04:13:53;;;;;;;13.82;8.15;;;;;;;15.91;74.11;100602.66;6278968;22;20045;-62
2022/09/24 04:16:21;;;;;;;11.18;7.65;;;;;;;16.44;72.19;100612.50;6251348;22;20012;-72
2022/09/24 04:18:49;;;;;;;12.60;6.80;;;;;;;16.77;70.55;100601.94;6224668;22;20321;-71
2022/09/24 04:21:17;;;;;;;12.75;7.88;;;;;;;17.02;69.71;100611.72;6251227;22;20035;-72
2022/09/24 04:23:44;;;;;;;11.20;7.45;;;;;;;17.07;69.34;100602.31;6251977;22;20016;-72
2022/09/24 04:26:11;;;;;;;10.35;7.20;;;;;;;17.26;68.54;100600.38;6277072;22;20024;-62
2022/09/24 04:28:38;;;;;;;11.18;8.05;;;;;;;17.20;68.40;100606.59;6277921;22;20134;-62
2022/09/24 04:31:06;;;;;;;12.40;7.22;;;;;;;17.18;68.50;100598.59;6250162;22;20020;-71
2022/09/24 04:33:33;;;;;;;10.80;7.45;;;;;;;17.21;68.48;100600.66;6277765;22;20024;-71
2022/09/24 04:36:00;;;;;;;11.43;7.75;;;;;;;17.11;68.76;100594.81;6277630;22;20015;-71
2022/09/24 04:38:28;;;;;;;15.18;7.00;;;;;;;16.93;69.49;100599.16;6226069;22;20022;-62
2022/09/24 04:41:03;;;;;;;11.07;7.15;;;;;;;16.99;69.26;100606.88;6250509;22;20023;-71
2022/09/24 04:43:32;;;;;;;12.55;7.15;;;;;;;16.98;69.13;100610.00;6250753;22;20028;-72
2022/09/24 04:45:59;;;;;;;11.85;7.57;;;;;;;16.53;70.65;100614.00;6277657;22;20018;-71
2022/09/24 04:48:27;;;;;;;12.05;6.85;;;;;;;16.21;72.37;100609.50;6250570;22;20019;-71
2022/09/24 04:50:54;;;;;;;14.48;7.18;;;;;;;16.47;72.01;100609.03;6275654;22;20026;-73
2022/09/24 04:53:22;;;;;;;12.68;7.93;;;;;;;16.65;71.38;100605.56;6276418;22;20086;-71
2022/09/24 04:55:49;;;;;;;12.63;7.95;;;;;;;16.89;70.26;100610.97;6277567;22;20020;-71
2022/09/24 04:58:17;;;;;;;12.23;7.28;;;;;;;17.02;69.65;100614.50;6277678;22;20035;-72
2022/09/24 05:00:44;;;;;;;11.85;7.80;;;;;;;17.08;69.38;100607.50;6251543;22;20019;-72
2022/09/24 05:03:11;;;;;;;12.43;7.63;;;;;;;17.14;68.97;100614.41;6278005;22;20030;-71
2022/09/24 05:05:38;;;;;;;11.23;6.63;;;;;;;17.14;68.69;100616.41;6251229;22;20026;-62
2022/09/24 05:08:06;;;;;;;10.65;7.03;;;;;;;17.11;68.93;100608.75;6251096;22;20026;-71
2022/09/24 05:10:33;;;;;;;9.93;6.97;;;;;;;17.23;68.68;100609.47;6278251;22;20670;-72
2022/09/24 05:13:01;;;;;;;11.82;7.32;;;;;;;17.35;68.23;100608.53;6252392;22;20027;-71
2022/09/24 05:15:28;;;;;;;10.38;7.22;;;;;;;17.33;68.17;100617.25;6251124;22;20016;-72
2022/09/24 05:17:56;;;;;;;10.38;6.78;;;;;;;17.37;67.89;100620.94;6250675;22;20026;-71
2022/09/24 05:20:24;;;;;;;11.50;7.05;;;;;;;17.21;68.32;100620.16;6277184;22;20328;-70
2022/09/24 05:22:51;;;;;;;10.40;7.30;;;;;;;17.28;68.31;100620.31;6278438;22;20024;-72
2022/09/24 05:25:20;;;;;;;10.68;7.03;;;;;;;17.32;68.32;100615.66;6278480;22;20469;-71
2022/09/24 05:27:54;;;;;;;11.13;7.35;;;;;;;17.13;68.92;100620.31;6251746;22;20016;-69
2022/09/24 05:30:23;;;;;;;10.00;7.38;;;;;;;17.17;69.05;100624.84;6251626;22;20020;-61
2022/09/24 05:32:51;;;;;;;16.48;7.70;;;;;;;17.15;69.18;100629.13;6252007;22;20019;-63
2022/09/24 05:35:20;;;;;;;13.52;7.18;;;;;;;17.28;68.77;100634.25;6251334;22;20016;-62
2022/09/24 05:37:48;;;;;;;15.38;7.32;;;;;;;17.32;68.50;100629.56;6278174;22;20012;-62
2022/09/24 05:43:03;;;;;;;26.27;8.70;;;;;;;17.38;68.24;100628.13;6256721;22;20499;-62
2022/09/24 05:45:31;;;;;;;18.95;7.72;;;;;;;17.31;68.55;100635.50;6224953;22;20022;-62
2022/09/24 05:47:58;;;;;;;32.22;8.85;;;;;;;17.05;69.67;100636.03;6278073;22;20016;-72
2022/09/24 05:50:26;;;;;;;34.60;10.25;;;;;;;16.81;70.86;100645.34;6224571;22;20026;-62
2022/09/24 05:52:54;;;;;;;35.28;10.30;;;;;;;16.93;70.34;100636.13;6251538;22;20019;-63
2022/09/24 05:55:21;;;;;;;18.05;8.30;;;;;;;17.00;69.95;100641.06;6249670;22;20016;-72
2022/09/24 05:57:48;;;;;;;44.40;13.60;;;;;;;17.08;69.72;100634.53;6251812;22;20012;-71
2022/09/24 06:00:15;;;;;;;19.00;8.55;;;;;;;16.90;70.35;100636.84;6251391;22;20020;-63
2022/09/24 06:02:43;;;;;;;31.85;10.20;;;;;;;17.09;69.79;100639.72;6249145;22;20020;-71
2022/09/24 06:05:12;;;;;;;25.77;9.05;;;;;;;17.15;69.65;100646.66;6277217;22;20012;-62
2022/09/24 06:07:39;;;;;;;16.42;8.75;;;;;;;17.16;70.10;100642.69;6277361;22;20107;-62
2022/09/24 06:10:07;;;;;;;18.45;7.90;;;;;;;17.27;69.70;100642.97;6251967;22;20019;-62
2022/09/24 06:12:34;;;;;;;12.38;7.28;;;;;;;17.25;69.74;100645.28;6278493;22;20024;-61
2022/09/24 06:15:02;;;;;;;11.65;7.60;;;;;;;17.24;69.85;100646.47;6249287;22;20019;-63
2022/09/24 06:17:30;;;;;;;12.27;8.32;;;;;;;17.29;69.75;100651.75;6227781;22;20042;-63
2022/09/24 06:19:57;;;;;;;20.30;8.40;;;;;;;17.31;69.87;100657.78;6278414;22;20075;-62
2022/09/24 06:22:26;;;;;;;21.48;11.45;;;;;;;17.31;70.00;100653.00;6252079;22;20419;-61
2022/09/24 06:24:55;;;;;;;33.60;17.85;;;;;;;17.34;70.33;100666.22;6251174;22;20509;-62
2022/09/24 06:27:22;;;;;;;29.40;15.23;;;;;;;17.29;70.46;100662.91;6252356;22;20019;-62
2022/09/24 06:29:50;;;;;;;23.17;10.07;;;;;;;17.12;71.01;100669.63;6252191;22;20022;-69
2022/09/24 06:32:18;;;;;;;20.30;8.18;;;;;;;17.27;70.86;100662.44;6279284;22;20344;-70
2022/09/24 06:34:46;;;;;;;16.15;7.75;;;;;;;17.32;70.91;100663.00;6279262;22;20419;-63
2022/09/24 06:37:13;;;;;;;22.27;8.52;;;;;;;17.33;70.76;100669.38;6278611;22;20419;-62
2022/09/24 06:39:41;;;;;;;15.50;8.15;;;;;;;17.28;71.10;100670.44;6252144;22;20023;-62
2022/09/24 06:42:08;;;;;;;15.15;8.20;;;;;;;17.22;71.52;100665.50;6276514;22;20019;-71
2022/09/24 06:44:35;;;;;;;17.77;8.52;;;;;;;17.26;71.54;100672.75;6277984;22;20019;-71
2022/09/24 06:47:03;;;;;;;20.25;9.52;;;;;;;17.33;71.20;100672.16;6225230;22;20082;-70
2022/09/24 06:49:35;;;;;;;13.68;8.77;;;;;;;17.30;71.21;100673.66;6224624;22;20023;-71
2022/09/24 06:52:03;;;;;;;22.00;10.88;;;;;;;17.32;71.18;100674.13;6251327;22;20023;-71
2022/09/24 06:54:30;;;;;;;14.73;7.97;;;;;;;17.17;72.04;100672.16;6279075;22;20019;-70
2022/09/24 06:56:58;;;;;;;12.68;8.02;;;;;;;17.00;72.77;100680.81;6251090;22;20018;-68
2022/09/24 06:59:25;;;;;;;19.30;10.60;;;;;;;17.04;72.47;100678.13;6249929;22;20020;-71
2022/09/24 07:01:52;;;;;;;14.38;8.80;;;;;;;17.16;71.82;100676.09;6251345;22;20482;-72
2022/09/24 07:04:20;;;;;;;15.88;8.25;;;;;;;17.31;70.96;100678.06;6277957;22;20107;-72
2022/09/24 07:09:35;;;;;;;15.95;9.35;;;;;;;17.16;71.90;100675.28;6277791;22;20059;-71
2022/09/24 07:12:04;;;;;;;15.02;7.85;;;;;;;17.16;71.65;100675.28;6252238;22;20030;-72
2022/09/24 07:14:32;;;;;;;24.63;17.20;;;;;;;17.19;71.89;100674.56;6250436;22;20430;-72
2022/09/24 07:16:59;;;;;;;21.75;16.58;;;;;;;17.38;71.03;100678.25;6277860;22;20026;-72
2022/09/24 07:19:26;;;;;;;13.30;7.32;;;;;;;17.32;71.06;100682.47;6250512;22;20027;-71
2022/09/24 07:21:54;;;;;;;11.07;6.50;;;;;;;17.32;71.15;100684.44;6250116;22;20028;-73
2022/09/24 07:24:21;;;;;;;25.20;7.45;;;;;;;17.35;71.16;100684.53;6276716;22;20020;-73
2022/09/24 07:26:48;;;;;;;22.48;8.77;;;;;;;17.35;70.99;100681.75;6249430;22;20012;-72
2022/09/24 07:29:15;;;;;;;10.73;6.60;;;;;;;17.31;71.09;100689.19;6225952;22;20022;-73
2022/09/24 07:31:43;;;;;;;13.68;7.68;;;;;;;17.31;71.08;100694.75;6226964;22;20019;-73
2022/09/24 07:34:10;;;;;;;11.18;6.70;;;;;;;17.28;71.44;100691.88;6224434;22;20028;-71
2022/09/24 07:36:38;;;;;;;10.00;6.03;;;;;;;17.39;70.81;100691.00;6251262;22;20014;-73
2022/09/24 07:39:06;;;;;;;10.68;7.32;;;;;;;17.22;71.49;100696.94;6278591;22;20020;-74
2022/09/24 07:41:33;;;;;;;17.90;7.18;;;;;;;17.30;71.24;100700.69;6278671;22;20016;-73
2022/09/24 07:44:11;;;;;;;11.50;6.00;;;;;;;17.25;71.23;100700.97;6251079;22;20023;-75
2022/09/24 07:46:38;;;;;;;36.30;8.20;;;;;;;17.28;71.13;100701.06;6278508;22;20328;-72
2022/09/24 07:49:06;;;;;;;58.10;10.70;;;;;;;17.34;71.00;100702.41;6276604;22;20030;-70
2022/09/24 07:51:36;;;;;;;32.42;8.68;;;;;;;17.40;70.79;100700.19;6251088;22;20027;-70
2022/09/24 07:54:06;;;;;;;34.80;8.40;;;;;;;17.28;71.76;100703.84;6276669;22;20019;-70
2022/09/24 07:56:34;;;;;;;43.80;8.48;;;;;;;17.30;72.00;100707.06;6277644;22;20019;-62
2022/09/24 07:59:13;;;;;;;12.82;5.82;;;;;;;17.07;72.71;100714.41;6225342;22;20026;-64
2022/09/24 08:01:42;;;;;;;27.33;7.45;;;;;;;17.42;72.41;100714.53;6250137;22;20031;-63
2022/09/24 08:04:10;;;;;;;29.45;7.85;;;;;;;17.52;73.04;100716.81;6248792;22;20019;-69
2022/09/24 08:06:37;;;;;;;33.40;7.20;;;;;;;17.49;73.09;100717.53;6246149;22;20019;-67
2022/09/24 08:09:11;;;;;;;17.85;6.97;;;;;;;17.38;73.30;100720.00;6271913;22;20019;-66
2022/09/24 08:11:38;;;;;;;13.43;6.80;;;;;;;17.55;73.65;100725.28;6250144;22;20020;-67
2022/09/24 08:14:06;;;;;;;15.45;6.85;;;;;;;17.41;74.85;100724.88;6275238;22;20023;-61
2022/09/24 08:16:33;;;;;;;9.90;6.07;;;;;;;17.50;74.54;100719.97;6277549;22;20011;-70
2022/09/24 08:19:00;;;;;;;11.20;6.35;;;;;;;17.61;73.49;100723.81;6278092;22;20109;-68
2022/09/24 08:21:28;;;;;;;10.90;6.60;;;;;;;17.57;72.60;100725.69;6247248;22;20023;-60
2022/09/24 08:24:00;;;;;;;11.85;6.88;;;;;;;17.54;73.76;100729.22;6251333;22;20015;-62
2022/09/24 08:26:27;;;;;;;10.10;6.82;;;;;;;17.49;73.26;100732.25;6278100;22;20012;-61
2022/09/24 08:28:55;;;;;;;8.65;6.20;;;;;;;17.46;73.85;100733.00;6223684;22;20015;-61
2022/09/24 08:31:22;;;;;;;9.13;6.55;;;;;;;17.59;73.09;100734.50;6275420;22;20043;-61
2022/09/24 08:33:49;;;;;;;11.70;6.43;;;;;;;17.43;73.68;100730.91;6275895;22;20015;-67
2022/09/24 08:36:17;;;;;;;9.70;7.07;;;;;;;16.95;74.36;100744.28;6275808;22;20015;-67
2022/09/24 08:38:44;;;;;;;16.77;10.38;;;;;;;17.11;75.21;100739.56;6277711;22;20020;-66
2022/09/24 08:41:12;;;;;;;48.95;11.48;;;;;;;17.04;75.28;100740.19;6275366;22;20023;-68
2022/09/24 08:43:49;;;;;;;30.88;9.52;;;;;;;17.38;73.76;100742.28;6248470;22;20015;-67
2022/09/24 08:49:34;;;;;;;24.77;8.30;;;;;;;17.28;73.98;100734.47;6223460;22;20023;-68
2022/09/24 08:52:33;;;;;;;41.47;8.95;;;;;;;17.39;73.65;100741.13;6248552;22;20019;-67
2022/09/24 08:55:24;;;;;;;91.22;13.02;;;;;;;17.45;72.77;100745.25;6278035;22;20020;-72
2022/09/24 08:58:02;;;;;;;14.25;7.60;;;;;;;17.25;73.89;100742.72;6273585;22;20022;-70
2022/09/24 09:00:30;;;;;;;26.42;8.68;;;;;;;17.57;72.61;100750.75;6250610;22;20020;-70
2022/09/24 09:03:06;;;;;;;49.78;9.23;;;;;;;17.70;71.79;100741.16;6225751;22;20015;-70
2022/09/24 09:05:54;;;;;;;61.97;10.75;;;;;;;17.81;71.58;100752.56;6275834;22;20466;-70
2022/09/24 09:09:02;;;;;;;69.35;11.80;;;;;;;17.77;71.62;100760.03;6276749;22;20012;-63
2022/09/24 09:11:36;;;;;;;224.85;30.52;;;;;;;17.70;72.31;100751.50;6250502;22;20031;-63
2022/09/24 09:14:16;;;;;;;168.30;21.00;;;;;;;17.37;74.23;100760.16;6277299;22;20012;-62
2022/09/24 09:17:05;;;;;;;97.43;14.30;;;;;;;17.65;72.80;100747.00;6276045;22;20031;-62
2022/09/24 09:19:33;;;;;;;128.70;15.05;;;;;;;17.62;73.24;100755.28;6248669;22;20026;-63
2022/09/24 09:22:15;;;;;;;155.82;19.30;;;;;;;17.52;73.98;100751.03;6223152;22;20043;-62
2022/09/24 09:24:48;;;;;;;98.47;13.90;;;;;;;17.75;72.80;100745.63;6275455;22;20026;-62
2022/09/24 09:27:17;;;;;;;15.43;7.13;;;;;;;17.57;72.58;100750.75;6274566;22;20019;-68
2022/09/24 09:29:48;;;;;;;38.65;9.55;;;;;;;17.64;72.91;100750.16;6250098;22;20027;-67
2022/09/24 09:32:41;;;;;;;47.83;10.45;;;;;;;17.59;73.24;100756.00;6275072;22;20443;-68
2022/09/24 09:35:40;;;;;;;32.90;9.98;;;;;;;17.87;72.02;100749.13;6224519;22;20023;-70
2022/09/24 09:38:34;;;;;;;52.80;13.35;;;;;;;17.87;71.85;100754.72;6270020;22;20513;-62
2022/09/24 09:41:36;;;;;;;42.28;11.32;;;;;;;17.80;72.16;100753.75;6219527;22;20099;-67
2022/09/24 09:44:14;;;;;;;29.27;10.77;;;;;;;17.85;71.97;100748.69;6270124;22;20019;-63
2022/09/24 09:46:48;;;;;;;30.00;9.57;;;;;;;17.99;71.80;100753.81;6275967;22;20293;-66
2022/09/24 09:49:16;;;;;;;38.47;13.77;;;;;;;18.09;70.79;100753.25;6249746;22;20455;-62
2022/09/24 09:51:45;;;;;;;20.65;11.75;;;;;;;18.22;70.03;100757.53;6273437;22;20293;-67
2022/09/24 09:54:13;;;;;;;47.20;12.05;;;;;;;18.15;69.60;100749.00;6277030;22;20016;-72
2022/09/24 09:56:43;;;;;;;16.90;8.73;;;;;;;17.78;70.83;100753.28;6249806;22;20031;-72
2022/09/24 09:59:10;;;;;;;31.02;8.82;;;;;;;17.42;72.18;100754.31;6249561;22;20030;-72
2022/09/24 10:01:54;;;;;;;26.50;9.15;;;;;;;17.53;72.02;100751.84;6275501;22;20027;-73
2022/09/24 10:04:34;;;;;;;24.35;8.30;;;;;;;17.65;71.54;100752.56;6250022;22;20478;-71
2022/09/24 10:07:12;;;;;;;31.42;8.15;;;;;;;17.51;70.93;100756.97;6247728;22;20012;-71
2022/09/24 10:09:41;;;;;;;34.67;8.38;;;;;;;17.20;73.16;100757.72;6249758;22;20030;-72
2022/09/24 10:12:23;;;;;;;52.55;10.55;;;;;;;17.15;73.69;100759.97;6275822;22;20459;-71
2022/09/24 10:15:11;;;;;;;27.02;8.48;;;;;;;17.40;73.86;100759.44;6250714;22;20634;-72
2022/09/24 10:17:38;;;;;;;16.63;8.30;;;;;;;17.38;73.15;100759.00;6251143;22;20485;-71
2022/09/24 10:20:17;;;;;;;16.42;7.25;;;;;;;17.55;72.68;100764.25;6249598;22;20034;-72
2022/09/24 10:22:53;;;;;;;26.92;17.85;;;;;;;17.59;72.46;100756.00;6248126;22;20026;-73
2022/09/24 10:25:28;;;;;;;22.17;12.05;;;;;;;17.58;72.66;100755.19;6249807;22;20046;-72
2022/09/24 10:30:54;;;;;;;22.23;8.25;;;;;;;17.70;72.04;100760.66;6227935;22;20020;-69
2022/09/24 10:33:22;;;;;;;21.45;8.05;;;;;;;18.03;71.16;100754.69;6244936;22;20027;-70
2022/09/24 10:35:50;;;;;;;23.20;7.88;;;;;;;17.94;69.73;100757.66;6248168;22;20099;-72
2022/09/24 10:38:20;;;;;;;13.82;8.15;;;;;;;17.81;70.25;100755.34;6277071;22;20007;-72
2022/09/24 10:40:47;;;;;;;;;;;;;;;17.66;70.14;100762.53;6248861;22;20020;-71
2022/09/24 10:43:17;;;;;;;14.15;8.27;;;;;;;17.97;68.75;100753.38;6234064;22;19926;-72
2022/09/24 10:45:54;;;;;;;21.25;8.50;;;;;;;17.69;70.30;100756.28;6248116;22;20022;-71
2022/09/24 10:48:40;;;;;;;11.13;8.30;;;;;;;17.67;69.37;100755.81;6276590;22;20022;-72
2022/09/24 10:51:42;;;;;;;22.83;11.80;;;;;;;17.96;70.12;100755.34;6248245;22;20119;-71
2022/09/24 10:54:29;;;;;;;13.20;9.15;;;;;;;17.95;69.44;100755.69;6233983;22;20015;-71
2022/09/24 10:56:58;;;;;;;14.43;8.73;;;;;;;18.08;68.67;100750.81;6250226;22;20019;-71
2022/09/24 10:59:49;;;;;;;16.73;9.25;;;;;;;18.21;68.76;100753.13;6250861;22;20027;-71
2022/09/24 11:02:58;;;;;;;14.23;9.23;;;;;;;18.29;68.08;100752.09;6275745;22;20032;-70
2022/09/24 11:05:40;;;;;;;22.92;9.30;;;;;;;18.37;67.96;100750.28;6249466;22;20012;-70
2022/09/24 11:08:36;;;;;;;12.35;8.77;;;;;;;18.59;68.08;100756.00;6226155;22;20019;-70
2022/09/24 11:11:11;;;;;;;13.32;8.48;;;;;;;18.81;67.00;100757.28;6250535;22;20015;-72
2022/09/24 11:13:49;;;;;;;14.43;9.02;;;;;;;18.74;66.45;100755.13;6277313;22;20027;-72
2022/09/24 11:16:38;;;;;;;14.13;9.50;;;;;;;18.65;66.91;100753.75;6225757;22;20339;-71
2022/09/24 11:19:27;;;;;;;14.80;10.05;;;;;;;18.52;66.18;100755.03;6260067;22;20015;-72
2022/09/24 11:21:57;;;;;;;12.17;9.33;;;;;;;18.43;66.36;100749.66;6277354;22;20016;-71
2022/09/24 11:24:27;;;;;;;21.48;14.52;;;;;;;18.50;66.48;100751.78;6276440;22;20016;-71
2022/09/24 11:26:54;;;;;;;19.33;14.27;;;;;;;18.54;66.29;100761.06;6275219;22;20030;-70
2022/09/24 11:29:43;;;;;;;19.52;10.82;;;;;;;18.40;66.06;100755.13;6276606;22;20015;-70
2022/09/24 11:32:28;;;;;;;15.07;10.13;;;;;;;17.47;69.36;100753.31;6248609;22;20031;-71
2022/09/24 11:35:34;;;;;;;12.73;9.50;;;;;;;17.88;68.69;100750.78;6248712;22;20030;-71
2022/09/24 11:38:27;;;;;;;15.90;10.20;;;;;;;18.29;67.97;100745.75;6277601;22;20015;-70
2022/09/24 11:41:11;;;;;;;14.77;9.88;;;;;;;18.39;67.83;100748.78;6273984;22;20016;-71
2022/09/24 11:43:51;;;;;;;12.88;9.05;;;;;;;18.68;66.12;100745.44;6277882;22;20012;-69
2022/09/24 11:46:31;;;;;;;13.85;9.73;;;;;;;18.56;66.65;100740.00;6249721;22;20028;-65
2022/09/24 11:49:10;;;;;;;20.73;9.60;;;;;;;18.90;65.11;100744.69;6249039;22;20015;-65
2022/09/24 11:51:58;;;;;;;16.75;10.07;;;;;;;18.69;65.32;100735.09;6277494;22;20015;-64
2022/09/24 11:54:28;;;;;;;33.67;10.95;;;;;;;18.71;65.38;100736.31;6249969;22;20695;-65